Aeroporto :
LOGIN :

Iscrizione | Disclaimer

   EN    FR    IT 

 










Sommario :    VFR   VFR Marginale   IFR   IFR Intensivo   IFR Molto Intensivo
Visibilità : 
Base nubi : 
>= 8 km
>= 3000ft
5 / 8 km
1000 / 3000 ft
1500m / 5 km
500 / 1000 ft
800 / 1500m
200 / 500 ft
< 800m
< 200 ft
Simboli :   Temporali  Nebbia  Neve Forte  Precipitazioni Forti  Vento > 20 kt
SIGMETs :   Varie  Temporali  Ghiacco  Turbolenza  Onda orograficha  Ceneri Vulcaniche






- Altitudine del aeroporto : 63 ft
- Codice IATA : BZM


EHWO - Woensdrecht Airbase

ULTIMO METAR :
  • 162155Z AUTO 17003KT 120V180 9999 OVC030 06/03 Q1010 BLU

METARs OBSOLETI :
  • 162125Z AUTO 21003KT 150V230 9999 FEW024 OVC027 07/03 Q1010 BLU
  • 162112Z AUTO 22003KT 180V250 9999 SCT024 OVC027 07/03 Q1010 WHT
  • 162101Z AUTO 20003KT 160V230 9999 SCT024 BKN027 OVC030 06/03 Q1010 WHT
  • 162044Z AUTO 18003KT 120V200 9999 FEW023 OVC027 06/03 Q1010 BLU
  • 162036Z AUTO 19003KT 9999 FEW020 BKN024 OVC027 07/03 Q1010 WHT
  • 162025Z AUTO 20004KT 9999 BKN025 OVC028 07/03 Q1010 BLU
  • 161955Z AUTO 20004KT 9999 OVC023 07/03 Q1010 WHT
  • 161925Z AUTO 19004KT 150V210 9999 OVC023 06/03 Q1010 WHT

Previsioni scadute.



MetMap, La meteo Aeronautica in un colpo d'occhio ! - Copyright ORBIFLY Dicembre 2007 - Disclaimer

ORBIFLY MET'MAP TEAM :

Programmazione e sviluppo : Alexandra Zaïnal
Concezione e sviluppo : Baudouin d'Aumeries
Co-Programmazione e sviluppo : Marc-Olivier Méhu
Supporto tecnico e logistico : Manuel Goepfert
Aiuto per la traduzione : Arnaldo La Scala

Contatto : metmap@orbifly.com




FONTI E CREDITI :

   NOAA